sensor_id;sensor_type;location;lat;lon;timestamp;temperature;humidity
31046;DHT22;17711;54.018;9.300;2022-12-07T00:02:00;3.60;99.90
31046;DHT22;17711;54.018;9.300;2022-12-07T00:04:29;3.60;99.90
31046;DHT22;17711;54.018;9.300;2022-12-07T00:06:57;3.60;99.90
31046;DHT22;17711;54.018;9.300;2022-12-07T00:09:26;3.60;99.90
31046;DHT22;17711;54.018;9.300;2022-12-07T00:11:56;3.60;99.90
31046;DHT22;17711;54.018;9.300;2022-12-07T00:14:24;3.60;99.90
31046;DHT22;17711;54.018;9.300;2022-12-07T00:16:53;3.60;99.90
31046;DHT22;17711;54.018;9.300;2022-12-07T00:19:21;3.60;99.90
31046;DHT22;17711;54.018;9.300;2022-12-07T00:21:50;3.60;99.90
31046;DHT22;17711;54.018;9.300;2022-12-07T00:24:18;3.60;99.90
31046;DHT22;17711;54.018;9.300;2022-12-07T00:26:48;3.60;99.90
31046;DHT22;17711;54.018;9.300;2022-12-07T00:29:20;3.60;99.90
31046;DHT22;17711;54.018;9.300;2022-12-07T00:31:48;3.60;99.90
31046;DHT22;17711;54.018;9.300;2022-12-07T00:34:19;3.60;99.90
31046;DHT22;17711;54.018;9.300;2022-12-07T00:36:48;3.50;99.90
31046;DHT22;17711;54.018;9.300;2022-12-07T00:39:17;3.50;99.90
31046;DHT22;17711;54.018;9.300;2022-12-07T00:41:45;3.50;99.90
31046;DHT22;17711;54.018;9.300;2022-12-07T00:44:14;3.50;99.90
31046;DHT22;17711;54.018;9.300;2022-12-07T00:46:44;3.50;99.90
31046;DHT22;17711;54.018;9.300;2022-12-07T00:49:13;3.40;99.90
31046;DHT22;17711;54.018;9.300;2022-12-07T00:51:42;3.40;99.90
31046;DHT22;17711;54.018;9.300;2022-12-07T00:54:10;3.40;99.90
31046;DHT22;17711;54.018;9.300;2022-12-07T00:56:40;3.40;99.90
31046;DHT22;17711;54.018;9.300;2022-12-07T00:59:12;3.40;99.90
31046;DHT22;17711;54.018;9.300;2022-12-07T01:01:43;3.40;99.90
31046;DHT22;17711;54.018;9.300;2022-12-07T01:04:12;3.40;99.90
31046;DHT22;17711;54.018;9.300;2022-12-07T01:06:40;3.40;99.90
31046;DHT22;17711;54.018;9.300;2022-12-07T01:09:09;3.40;99.90
31046;DHT22;17711;54.018;9.300;2022-12-07T01:11:38;3.40;99.90
31046;DHT22;17711;54.018;9.300;2022-12-07T01:14:06;3.40;99.90
31046;DHT22;17711;54.018;9.300;2022-12-07T01:16:35;3.40;99.90
31046;DHT22;17711;54.018;9.300;2022-12-07T01:19:05;3.40;99.90
31046;DHT22;17711;54.018;9.300;2022-12-07T01:21:34;3.40;99.90
31046;DHT22;17711;54.018;9.300;2022-12-07T01:24:07;3.40;99.90
31046;DHT22;17711;54.018;9.300;2022-12-07T01:26:36;3.40;99.90
31046;DHT22;17711;54.018;9.300;2022-12-07T01:29:04;3.40;99.90
31046;DHT22;17711;54.018;9.300;2022-12-07T01:31:33;3.30;99.90
31046;DHT22;17711;54.018;9.300;2022-12-07T01:34:02;3.30;99.90
31046;DHT22;17711;54.018;9.300;2022-12-07T01:36:34;3.30;99.90
31046;DHT22;17711;54.018;9.300;2022-12-07T01:39:04;3.30;99.90
31046;DHT22;17711;54.018;9.300;2022-12-07T01:41:35;3.30;99.90
31046;DHT22;17711;54.018;9.300;2022-12-07T01:44:14;3.30;99.90
31046;DHT22;17711;54.018;9.300;2022-12-07T01:46:43;3.30;99.90
31046;DHT22;17711;54.018;9.300;2022-12-07T01:49:17;3.30;99.90
31046;DHT22;17711;54.018;9.300;2022-12-07T01:51:48;3.30;99.90
31046;DHT22;17711;54.018;9.300;2022-12-07T01:54:18;3.30;99.90
31046;DHT22;17711;54.018;9.300;2022-12-07T01:56:50;3.20;99.90
31046;DHT22;17711;54.018;9.300;2022-12-07T01:59:22;3.30;99.90
31046;DHT22;17711;54.018;9.300;2022-12-07T02:01:54;3.20;99.90
31046;DHT22;17711;54.018;9.300;2022-12-07T02:04:23;3.20;99.90
31046;DHT22;17711;54.018;9.300;2022-12-07T02:06:54;3.20;99.90
31046;DHT22;17711;54.018;9.300;2022-12-07T02:09:23;3.20;99.90
31046;DHT22;17711;54.018;9.300;2022-12-07T02:11:53;3.20;99.90
31046;DHT22;17711;54.018;9.300;2022-12-07T02:14:22;3.10;99.90
31046;DHT22;17711;54.018;9.300;2022-12-07T02:17:03;3.20;99.90
31046;DHT22;17711;54.018;9.300;2022-12-07T02:20:20;3.10;99.90
31046;DHT22;17711;54.018;9.300;2022-12-07T02:26:41;3.10;99.90
31046;DHT22;17711;54.018;9.300;2022-12-07T02:29:22;3.10;99.90
31046;DHT22;17711;54.018;9.300;2022-12-07T02:31:56;3.00;99.90
31046;DHT22;17711;54.018;9.300;2022-12-07T02:34:34;3.00;99.90
31046;DHT22;17711;54.018;9.300;2022-12-07T02:37:10;3.00;99.90
31046;DHT22;17711;54.018;9.300;2022-12-07T02:39:45;3.00;99.90
31046;DHT22;17711;54.018;9.300;2022-12-07T02:42:19;3.00;99.90
31046;DHT22;17711;54.018;9.300;2022-12-07T02:44:53;3.00;99.90
31046;DHT22;17711;54.018;9.300;2022-12-07T02:47:23;2.90;99.90
31046;DHT22;17711;54.018;9.300;2022-12-07T02:49:53;2.90;99.90
31046;DHT22;17711;54.018;9.300;2022-12-07T02:52:22;2.90;99.90
31046;DHT22;17711;54.018;9.300;2022-12-07T02:54:50;3.00;99.90
31046;DHT22;17711;54.018;9.300;2022-12-07T02:57:29;3.00;99.90
31046;DHT22;17711;54.018;9.300;2022-12-07T03:00:05;3.00;99.90
31046;DHT22;17711;54.018;9.300;2022-12-07T03:02:41;3.00;99.90
31046;DHT22;17711;54.018;9.300;2022-12-07T03:05:33;3.00;99.90
31046;DHT22;17711;54.018;9.300;2022-12-07T03:08:11;2.90;99.90
31046;DHT22;17711;54.018;9.300;2022-12-07T03:10:48;2.90;99.90
31046;DHT22;17711;54.018;9.300;2022-12-07T03:13:22;2.80;99.90
31046;DHT22;17711;54.018;9.300;2022-12-07T03:15:58;2.80;99.90
31046;DHT22;17711;54.018;9.300;2022-12-07T03:18:31;2.80;99.90
31046;DHT22;17711;54.018;9.300;2022-12-07T03:21:06;2.70;99.90
31046;DHT22;17711;54.018;9.300;2022-12-07T03:23:39;2.70;99.90
31046;DHT22;17711;54.018;9.300;2022-12-07T03:26:11;2.60;99.90
31046;DHT22;17711;54.018;9.300;2022-12-07T03:28:43;2.60;99.90
31046;DHT22;17711;54.018;9.300;2022-12-07T03:31:17;2.60;99.90
31046;DHT22;17711;54.018;9.300;2022-12-07T03:33:52;2.60;99.90
31046;DHT22;17711;54.018;9.300;2022-12-07T03:36:26;2.50;99.90
31046;DHT22;17711;54.018;9.300;2022-12-07T03:39:00;2.50;99.90
31046;DHT22;17711;54.018;9.300;2022-12-07T03:41:33;2.40;99.90
31046;DHT22;17711;54.018;9.300;2022-12-07T03:44:10;2.40;99.90
31046;DHT22;17711;54.018;9.300;2022-12-07T03:46:44;2.40;99.90
31046;DHT22;17711;54.018;9.300;2022-12-07T03:49:18;2.40;99.90
31046;DHT22;17711;54.018;9.300;2022-12-07T03:51:54;2.40;99.90
31046;DHT22;17711;54.018;9.300;2022-12-07T03:54:28;2.30;99.90
31046;DHT22;17711;54.018;9.300;2022-12-07T03:56:59;2.30;99.90
31046;DHT22;17711;54.018;9.300;2022-12-07T03:59:30;2.30;99.90
31046;DHT22;17711;54.018;9.300;2022-12-07T04:05:29;2.30;99.90
31046;DHT22;17711;54.018;9.300;2022-12-07T04:08:00;2.30;99.90
31046;DHT22;17711;54.018;9.300;2022-12-07T04:10:30;2.40;99.90
31046;DHT22;17711;54.018;9.300;2022-12-07T04:12:59;2.40;99.90
31046;DHT22;17711;54.018;9.300;2022-12-07T04:15:27;2.40;99.90
31046;DHT22;17711;54.018;9.300;2022-12-07T04:17:56;2.40;99.90
31046;DHT22;17711;54.018;9.300;2022-12-07T04:20:25;2.40;99.90
31046;DHT22;17711;54.018;9.300;2022-12-07T04:22:55;2.40;99.90
31046;DHT22;17711;54.018;9.300;2022-12-07T04:25:23;2.40;99.90
31046;DHT22;17711;54.018;9.300;2022-12-07T04:27:52;2.40;99.90
31046;DHT22;17711;54.018;9.300;2022-12-07T04:30:21;2.40;99.90
31046;DHT22;17711;54.018;9.300;2022-12-07T04:32:49;2.40;99.90
31046;DHT22;17711;54.018;9.300;2022-12-07T04:35:18;2.40;99.90
31046;DHT22;17711;54.018;9.300;2022-12-07T04:37:47;2.40;99.90
31046;DHT22;17711;54.018;9.300;2022-12-07T04:40:17;2.40;99.90
31046;DHT22;17711;54.018;9.300;2022-12-07T04:42:45;2.40;99.90
31046;DHT22;17711;54.018;9.300;2022-12-07T04:45:14;2.40;99.90
31046;DHT22;17711;54.018;9.300;2022-12-07T04:47:43;2.40;99.90
31046;DHT22;17711;54.018;9.300;2022-12-07T04:50:11;2.40;99.90
31046;DHT22;17711;54.018;9.300;2022-12-07T04:52:40;2.40;99.90
31046;DHT22;17711;54.018;9.300;2022-12-07T04:55:09;2.40;99.90
31046;DHT22;17711;54.018;9.300;2022-12-07T04:57:38;2.40;99.90
31046;DHT22;17711;54.018;9.300;2022-12-07T05:00:08;2.40;99.90
31046;DHT22;17711;54.018;9.300;2022-12-07T05:02:37;2.40;99.90
31046;DHT22;17711;54.018;9.300;2022-12-07T05:05:06;2.40;99.90
31046;DHT22;17711;54.018;9.300;2022-12-07T05:07:34;2.40;99.90
31046;DHT22;17711;54.018;9.300;2022-12-07T05:10:05;2.50;99.90
31046;DHT22;17711;54.018;9.300;2022-12-07T05:12:34;2.50;99.90
31046;DHT22;17711;54.018;9.300;2022-12-07T05:15:05;2.50;99.90
31046;DHT22;17711;54.018;9.300;2022-12-07T05:17:34;2.50;99.90
31046;DHT22;17711;54.018;9.300;2022-12-07T05:20:02;2.50;99.90
31046;DHT22;17711;54.018;9.300;2022-12-07T05:22:31;2.50;99.90
31046;DHT22;17711;54.018;9.300;2022-12-07T05:25:00;2.50;99.90
31046;DHT22;17711;54.018;9.300;2022-12-07T05:27:28;2.50;99.90
31046;DHT22;17711;54.018;9.300;2022-12-07T05:29:57;2.50;99.90
31046;DHT22;17711;54.018;9.300;2022-12-07T05:32:27;2.50;99.90
31046;DHT22;17711;54.018;9.300;2022-12-07T05:34:56;2.50;99.90
31046;DHT22;17711;54.018;9.300;2022-12-07T05:37:24;2.50;99.90
31046;DHT22;17711;54.018;9.300;2022-12-07T05:39:53;2.60;99.90
31046;DHT22;17711;54.018;9.300;2022-12-07T05:42:21;2.60;99.90
31046;DHT22;17711;54.018;9.300;2022-12-07T05:44:49;2.60;99.90
31046;DHT22;17711;54.018;9.300;2022-12-07T05:47:17;2.60;99.90
31046;DHT22;17711;54.018;9.300;2022-12-07T05:49:47;2.60;99.90
31046;DHT22;17711;54.018;9.300;2022-12-07T05:52:16;2.60;99.90
31046;DHT22;17711;54.018;9.300;2022-12-07T05:54:45;2.50;99.90
31046;DHT22;17711;54.018;9.300;2022-12-07T05:57:13;2.60;99.90
31046;DHT22;17711;54.018;9.300;2022-12-07T05:59:42;2.60;99.90
31046;DHT22;17711;54.018;9.300;2022-12-07T06:02:10;2.60;99.90
31046;DHT22;17711;54.018;9.300;2022-12-07T06:04:41;2.60;99.90
31046;DHT22;17711;54.018;9.300;2022-12-07T06:07:13;2.70;99.90
31046;DHT22;17711;54.018;9.300;2022-12-07T06:09:42;2.70;99.90
31046;DHT22;17711;54.018;9.300;2022-12-07T06:12:12;2.70;99.90
31046;DHT22;17711;54.018;9.300;2022-12-07T06:14:58;2.70;99.90
31046;DHT22;17711;54.018;9.300;2022-12-07T06:17:27;2.60;99.90
31046;DHT22;17711;54.018;9.300;2022-12-07T06:19:55;2.60;99.90
31046;DHT22;17711;54.018;9.300;2022-12-07T06:22:25;2.60;99.90
31046;DHT22;17711;54.018;9.300;2022-12-07T06:24:54;2.70;99.90
31046;DHT22;17711;54.018;9.300;2022-12-07T06:27:22;2.70;99.90
31046;DHT22;17711;54.018;9.300;2022-12-07T06:29:51;2.70;99.90
31046;DHT22;17711;54.018;9.300;2022-12-07T06:32:19;2.80;99.90
31046;DHT22;17711;54.018;9.300;2022-12-07T06:34:48;2.80;99.90
31046;DHT22;17711;54.018;9.300;2022-12-07T06:37:16;2.80;99.90
31046;DHT22;17711;54.018;9.300;2022-12-07T06:39:46;2.80;99.90
31046;DHT22;17711;54.018;9.300;2022-12-07T06:42:15;2.80;99.90
31046;DHT22;17711;54.018;9.300;2022-12-07T06:44:43;2.80;99.90
31046;DHT22;17711;54.018;9.300;2022-12-07T06:47:12;2.80;99.90
31046;DHT22;17711;54.018;9.300;2022-12-07T06:50:01;2.80;99.90
31046;DHT22;17711;54.018;9.300;2022-12-07T06:52:30;2.90;99.90
31046;DHT22;17711;54.018;9.300;2022-12-07T06:55:00;2.90;99.90
31046;DHT22;17711;54.018;9.300;2022-12-07T06:57:29;2.90;99.90
31046;DHT22;17711;54.018;9.300;2022-12-07T06:59:57;2.90;99.90
31046;DHT22;17711;54.018;9.300;2022-12-07T07:02:27;3.00;99.90
31046;DHT22;17711;54.018;9.300;2022-12-07T07:04:58;2.90;99.90
31046;DHT22;17711;54.018;9.300;2022-12-07T07:07:27;2.90;99.90
31046;DHT22;17711;54.018;9.300;2022-12-07T07:09:56;2.90;99.90
31046;DHT22;17711;54.018;9.300;2022-12-07T07:12:26;2.90;99.90
31046;DHT22;17711;54.018;9.300;2022-12-07T07:14:54;2.90;99.90
31046;DHT22;17711;54.018;9.300;2022-12-07T07:17:23;2.90;99.90
31046;DHT22;17711;54.018;9.300;2022-12-07T07:19:52;2.90;99.90
31046;DHT22;17711;54.018;9.300;2022-12-07T07:22:21;2.90;99.90
31046;DHT22;17711;54.018;9.300;2022-12-07T07:24:49;2.90;99.90
31046;DHT22;17711;54.018;9.300;2022-12-07T07:27:18;2.90;99.90
31046;DHT22;17711;54.018;9.300;2022-12-07T07:29:48;2.90;99.90
31046;DHT22;17711;54.018;9.300;2022-12-07T07:32:16;2.90;99.90
31046;DHT22;17711;54.018;9.300;2022-12-07T07:34:45;2.90;99.90
31046;DHT22;17711;54.018;9.300;2022-12-07T07:37:14;3.00;99.90
31046;DHT22;17711;54.018;9.300;2022-12-07T07:39:48;3.00;99.90
31046;DHT22;17711;54.018;9.300;2022-12-07T07:42:16;3.00;99.90
31046;DHT22;17711;54.018;9.300;2022-12-07T07:44:45;3.00;99.90
31046;DHT22;17711;54.018;9.300;2022-12-07T07:47:14;3.00;99.90
31046;DHT22;17711;54.018;9.300;2022-12-07T07:49:43;3.00;99.90
31046;DHT22;17711;54.018;9.300;2022-12-07T07:52:14;3.00;99.90
31046;DHT22;17711;54.018;9.300;2022-12-07T07:54:43;3.00;99.90
31046;DHT22;17711;54.018;9.300;2022-12-07T07:57:11;3.10;99.90
31046;DHT22;17711;54.018;9.300;2022-12-07T07:59:40;3.10;99.90
31046;DHT22;17711;54.018;9.300;2022-12-07T08:02:10;3.10;99.90
31046;DHT22;17711;54.018;9.300;2022-12-07T08:04:43;3.10;99.90
31046;DHT22;17711;54.018;9.300;2022-12-07T08:07:12;3.10;99.90
31046;DHT22;17711;54.018;9.300;2022-12-07T08:09:41;3.10;99.90
31046;DHT22;17711;54.018;9.300;2022-12-07T08:12:09;3.20;99.90
31046;DHT22;17711;54.018;9.300;2022-12-07T08:14:38;3.20;99.90
31046;DHT22;17711;54.018;9.300;2022-12-07T08:17:06;3.30;99.90
31046;DHT22;17711;54.018;9.300;2022-12-07T08:19:35;3.30;99.90
31046;DHT22;17711;54.018;9.300;2022-12-07T08:22:05;3.40;99.90
31046;DHT22;17711;54.018;9.300;2022-12-07T08:24:33;3.40;99.90
31046;DHT22;17711;54.018;9.300;2022-12-07T08:27:03;3.40;99.90
31046;DHT22;17711;54.018;9.300;2022-12-07T08:29:32;3.40;99.90
31046;DHT22;17711;54.018;9.300;2022-12-07T08:32:00;3.50;99.90
31046;DHT22;17711;54.018;9.300;2022-12-07T08:34:35;3.50;99.90
31046;DHT22;17711;54.018;9.300;2022-12-07T08:37:05;3.60;99.90
31046;DHT22;17711;54.018;9.300;2022-12-07T08:39:34;3.60;99.90
31046;DHT22;17711;54.018;9.300;2022-12-07T08:42:03;3.60;99.90
31046;DHT22;17711;54.018;9.300;2022-12-07T08:44:32;3.60;99.90
31046;DHT22;17711;54.018;9.300;2022-12-07T08:47:03;3.60;99.90
31046;DHT22;17711;54.018;9.300;2022-12-07T08:49:36;3.70;99.90
31046;DHT22;17711;54.018;9.300;2022-12-07T08:52:07;3.70;99.90
31046;DHT22;17711;54.018;9.300;2022-12-07T08:54:37;3.70;99.90
31046;DHT22;17711;54.018;9.300;2022-12-07T08:57:07;3.80;99.90
31046;DHT22;17711;54.018;9.300;2022-12-07T08:59:37;3.80;99.90
31046;DHT22;17711;54.018;9.300;2022-12-07T09:02:05;3.90;99.90
31046;DHT22;17711;54.018;9.300;2022-12-07T09:04:34;3.90;99.90
31046;DHT22;17711;54.018;9.300;2022-12-07T09:07:03;4.00;99.90
31046;DHT22;17711;54.018;9.300;2022-12-07T09:09:33;4.00;99.90
31046;DHT22;17711;54.018;9.300;2022-12-07T09:12:03;4.00;99.90
31046;DHT22;17711;54.018;9.300;2022-12-07T09:14:31;4.10;99.90
31046;DHT22;17711;54.018;9.300;2022-12-07T09:17:05;4.20;99.90
31046;DHT22;17711;54.018;9.300;2022-12-07T09:19:34;4.20;99.90
31046;DHT22;17711;54.018;9.300;2022-12-07T09:22:03;4.30;99.90
31046;DHT22;17711;54.018;9.300;2022-12-07T09:24:34;4.30;99.90
31046;DHT22;17711;54.018;9.300;2022-12-07T09:27:02;4.40;99.90
31046;DHT22;17711;54.018;9.300;2022-12-07T09:29:31;4.40;99.90
31046;DHT22;17711;54.018;9.300;2022-12-07T09:31:59;4.50;99.90
31046;DHT22;17711;54.018;9.300;2022-12-07T09:34:35;4.50;99.90
31046;DHT22;17711;54.018;9.300;2022-12-07T09:37:04;4.50;99.90
31046;DHT22;17711;54.018;9.300;2022-12-07T09:39:37;4.60;99.90
31046;DHT22;17711;54.018;9.300;2022-12-07T09:42:18;4.60;99.90
31046;DHT22;17711;54.018;9.300;2022-12-07T09:44:54;4.70;99.90
31046;DHT22;17711;54.018;9.300;2022-12-07T09:47:22;4.80;99.90
31046;DHT22;17711;54.018;9.300;2022-12-07T09:49:51;4.90;99.90
31046;DHT22;17711;54.018;9.300;2022-12-07T09:52:27;4.90;99.90
31046;DHT22;17711;54.018;9.300;2022-12-07T09:55:10;5.00;99.90
31046;DHT22;17711;54.018;9.300;2022-12-07T09:57:40;5.00;99.90
31046;DHT22;17711;54.018;9.300;2022-12-07T10:00:13;5.10;99.90
31046;DHT22;17711;54.018;9.300;2022-12-07T10:02:46;5.20;99.90
31046;DHT22;17711;54.018;9.300;2022-12-07T10:05:16;5.30;99.90
31046;DHT22;17711;54.018;9.300;2022-12-07T10:07:50;5.40;99.90
31046;DHT22;17711;54.018;9.300;2022-12-07T10:10:28;5.50;99.90
31046;DHT22;17711;54.018;9.300;2022-12-07T10:13:06;5.50;99.90
31046;DHT22;17711;54.018;9.300;2022-12-07T10:15:47;5.60;99.90
31046;DHT22;17711;54.018;9.300;2022-12-07T10:18:28;5.60;99.90
31046;DHT22;17711;54.018;9.300;2022-12-07T10:21:11;5.60;99.90
31046;DHT22;17711;54.018;9.300;2022-12-07T10:23:41;5.70;99.90
31046;DHT22;17711;54.018;9.300;2022-12-07T10:26:27;5.70;99.90
31046;DHT22;17711;54.018;9.300;2022-12-07T10:28:59;5.70;99.90
31046;DHT22;17711;54.018;9.300;2022-12-07T10:31:29;5.80;99.90
31046;DHT22;17711;54.018;9.300;2022-12-07T10:33:59;5.80;99.90
31046;DHT22;17711;54.018;9.300;2022-12-07T10:36:35;5.80;99.90
31046;DHT22;17711;54.018;9.300;2022-12-07T10:39:12;5.80;99.90
31046;DHT22;17711;54.018;9.300;2022-12-07T10:41:54;5.90;99.90
31046;DHT22;17711;54.018;9.300;2022-12-07T10:44:26;6.00;99.90
31046;DHT22;17711;54.018;9.300;2022-12-07T10:47:13;6.00;99.90
31046;DHT22;17711;54.018;9.300;2022-12-07T10:50:07;6.20;99.90
31046;DHT22;17711;54.018;9.300;2022-12-07T10:55:39;6.30;99.90
31046;DHT22;17711;54.018;9.300;2022-12-07T10:58:23;6.30;99.90
31046;DHT22;17711;54.018;9.300;2022-12-07T11:01:01;6.30;99.90
31046;DHT22;17711;54.018;9.300;2022-12-07T11:03:50;6.30;99.90
31046;DHT22;17711;54.018;9.300;2022-12-07T11:06:29;6.40;99.90
31046;DHT22;17711;54.018;9.300;2022-12-07T11:09:26;6.30;99.90
31046;DHT22;17711;54.018;9.300;2022-12-07T11:12:28;6.30;99.90
31046;DHT22;17711;54.018;9.300;2022-12-07T11:15:03;6.30;99.90
31046;DHT22;17711;54.018;9.300;2022-12-07T11:17:40;6.30;99.90
31046;DHT22;17711;54.018;9.300;2022-12-07T11:20:24;6.30;99.90
31046;DHT22;17711;54.018;9.300;2022-12-07T11:23:02;6.40;99.90
31046;DHT22;17711;54.018;9.300;2022-12-07T11:25:37;6.40;99.90
31046;DHT22;17711;54.018;9.300;2022-12-07T11:28:17;6.40;99.90
31046;DHT22;17711;54.018;9.300;2022-12-07T11:30:54;6.50;99.90
31046;DHT22;17711;54.018;9.300;2022-12-07T11:33:29;6.50;99.90
31046;DHT22;17711;54.018;9.300;2022-12-07T11:36:07;6.60;99.90
31046;DHT22;17711;54.018;9.300;2022-12-07T11:38:43;6.60;99.90
31046;DHT22;17711;54.018;9.300;2022-12-07T11:41:15;6.60;99.90
31046;DHT22;17711;54.018;9.300;2022-12-07T11:43:53;6.70;99.90
31046;DHT22;17711;54.018;9.300;2022-12-07T11:46:28;6.60;99.90
31046;DHT22;17711;54.018;9.300;2022-12-07T11:49:07;6.60;99.90
31046;DHT22;17711;54.018;9.300;2022-12-07T11:51:39;6.70;99.90
31046;DHT22;17711;54.018;9.300;2022-12-07T11:54:14;6.80;99.90
31046;DHT22;17711;54.018;9.300;2022-12-07T11:56:46;6.90;99.90
31046;DHT22;17711;54.018;9.300;2022-12-07T11:59:22;7.10;99.90
31046;DHT22;17711;54.018;9.300;2022-12-07T12:01:57;7.20;99.90
31046;DHT22;17711;54.018;9.300;2022-12-07T12:04:35;7.30;99.90
31046;DHT22;17711;54.018;9.300;2022-12-07T12:07:15;7.30;99.90
31046;DHT22;17711;54.018;9.300;2022-12-07T12:10:13;7.30;99.90
31046;DHT22;17711;54.018;9.300;2022-12-07T12:13:03;7.30;99.90
31046;DHT22;17711;54.018;9.300;2022-12-07T12:16:06;7.20;99.90
31046;DHT22;17711;54.018;9.300;2022-12-07T12:19:04;7.30;99.90
31046;DHT22;17711;54.018;9.300;2022-12-07T12:21:40;7.30;99.90
31046;DHT22;17711;54.018;9.300;2022-12-07T12:24:12;7.40;99.90
31046;DHT22;17711;54.018;9.300;2022-12-07T12:26:48;7.50;99.90
31046;DHT22;17711;54.018;9.300;2022-12-07T12:29:23;7.50;99.90
31046;DHT22;17711;54.018;9.300;2022-12-07T12:32:13;7.50;99.90
31046;DHT22;17711;54.018;9.300;2022-12-07T12:37:46;7.40;99.90
31046;DHT22;17711;54.018;9.300;2022-12-07T12:40:41;7.30;99.90
31046;DHT22;17711;54.018;9.300;2022-12-07T12:43:50;7.20;99.90
31046;DHT22;17711;54.018;9.300;2022-12-07T12:46:46;7.20;99.90
31046;DHT22;17711;54.018;9.300;2022-12-07T12:49:43;7.20;99.90
31046;DHT22;17711;54.018;9.300;2022-12-07T12:52:55;7.20;99.90
31046;DHT22;17711;54.018;9.300;2022-12-07T12:56:03;7.10;99.90
31046;DHT22;17711;54.018;9.300;2022-12-07T12:58:45;7.10;99.90
31046;DHT22;17711;54.018;9.300;2022-12-07T13:01:39;7.00;99.90
31046;DHT22;17711;54.018;9.300;2022-12-07T13:04:24;7.00;99.90
31046;DHT22;17711;54.018;9.300;2022-12-07T13:06:54;6.90;99.90
31046;DHT22;17711;54.018;9.300;2022-12-07T13:09:26;6.90;99.90
31046;DHT22;17711;54.018;9.300;2022-12-07T13:12:04;6.80;99.90
31046;DHT22;17711;54.018;9.300;2022-12-07T13:14:53;6.70;99.90
31046;DHT22;17711;54.018;9.300;2022-12-07T13:18:00;6.60;99.90
31046;DHT22;17711;54.018;9.300;2022-12-07T13:20:59;6.60;99.90
31046;DHT22;17711;54.018;9.300;2022-12-07T13:23:31;6.40;99.90
31046;DHT22;17711;54.018;9.300;2022-12-07T13:26:16;6.40;99.90
31046;DHT22;17711;54.018;9.300;2022-12-07T13:28:47;6.30;99.90
31046;DHT22;17711;54.018;9.300;2022-12-07T13:31:32;6.30;99.90
31046;DHT22;17711;54.018;9.300;2022-12-07T13:34:02;6.20;99.90
31046;DHT22;17711;54.018;9.300;2022-12-07T13:36:33;6.10;99.90
31046;DHT22;17711;54.018;9.300;2022-12-07T13:39:18;6.10;99.90
31046;DHT22;17711;54.018;9.300;2022-12-07T13:41:51;6.00;99.90
31046;DHT22;17711;54.018;9.300;2022-12-07T13:44:20;5.90;99.90
31046;DHT22;17711;54.018;9.300;2022-12-07T13:46:54;5.80;99.90
31046;DHT22;17711;54.018;9.300;2022-12-07T13:49:27;5.80;99.90
31046;DHT22;17711;54.018;9.300;2022-12-07T13:52:13;5.70;99.90
31046;DHT22;17711;54.018;9.300;2022-12-07T13:54:47;5.60;99.90
31046;DHT22;17711;54.018;9.300;2022-12-07T13:57:17;5.60;99.90
31046;DHT22;17711;54.018;9.300;2022-12-07T13:59:46;5.60;99.90
31046;DHT22;17711;54.018;9.300;2022-12-07T14:02:19;5.60;99.90
31046;DHT22;17711;54.018;9.300;2022-12-07T14:04:49;5.60;99.90
31046;DHT22;17711;54.018;9.300;2022-12-07T14:07:22;5.70;99.90
31046;DHT22;17711;54.018;9.300;2022-12-07T14:09:58;5.70;99.90
31046;DHT22;17711;54.018;9.300;2022-12-07T14:12:30;5.70;99.90
31046;DHT22;17711;54.018;9.300;2022-12-07T14:15:00;5.60;99.90
31046;DHT22;17711;54.018;9.300;2022-12-07T14:17:30;5.60;99.90
31046;DHT22;17711;54.018;9.300;2022-12-07T14:19:59;5.50;99.90
31046;DHT22;17711;54.018;9.300;2022-12-07T14:22:31;5.40;99.90
31046;DHT22;17711;54.018;9.300;2022-12-07T14:25:17;5.30;99.90
31046;DHT22;17711;54.018;9.300;2022-12-07T14:27:53;5.20;99.90
31046;DHT22;17711;54.018;9.300;2022-12-07T14:30:24;5.10;99.90
31046;DHT22;17711;54.018;9.300;2022-12-07T14:32:57;5.00;99.90
31046;DHT22;17711;54.018;9.300;2022-12-07T14:35:26;4.90;99.90
31046;DHT22;17711;54.018;9.300;2022-12-07T14:37:55;4.70;99.90
31046;DHT22;17711;54.018;9.300;2022-12-07T14:40:24;4.60;99.90
31046;DHT22;17711;54.018;9.300;2022-12-07T14:42:59;4.50;99.90
31046;DHT22;17711;54.018;9.300;2022-12-07T14:45:28;4.30;99.90
31046;DHT22;17711;54.018;9.300;2022-12-07T14:47:57;4.20;99.90
31046;DHT22;17711;54.018;9.300;2022-12-07T14:50:49;4.10;99.90
31046;DHT22;17711;54.018;9.300;2022-12-07T14:53:41;3.90;99.90
31046;DHT22;17711;54.018;9.300;2022-12-07T14:56:14;3.80;99.90
31046;DHT22;17711;54.018;9.300;2022-12-07T14:58:44;3.70;99.90
31046;DHT22;17711;54.018;9.300;2022-12-07T15:01:15;3.60;99.90
31046;DHT22;17711;54.018;9.300;2022-12-07T15:03:43;3.50;99.90
31046;DHT22;17711;54.018;9.300;2022-12-07T15:06:15;3.40;99.90
31046;DHT22;17711;54.018;9.300;2022-12-07T15:08:44;3.30;99.90
31046;DHT22;17711;54.018;9.300;2022-12-07T15:11:14;3.20;99.90
31046;DHT22;17711;54.018;9.300;2022-12-07T15:13:46;3.10;99.90
31046;DHT22;17711;54.018;9.300;2022-12-07T15:16:32;3.10;99.90
31046;DHT22;17711;54.018;9.300;2022-12-07T15:19:22;3.10;99.90
31046;DHT22;17711;54.018;9.300;2022-12-07T15:21:56;3.00;99.90
31046;DHT22;17711;54.018;9.300;2022-12-07T15:24:26;2.90;99.90
31046;DHT22;17711;54.018;9.300;2022-12-07T15:26:55;2.80;99.90
31046;DHT22;17711;54.018;9.300;2022-12-07T15:29:25;2.70;99.90
31046;DHT22;17711;54.018;9.300;2022-12-07T15:31:54;2.60;99.90
31046;DHT22;17711;54.018;9.300;2022-12-07T15:34:25;2.60;99.90
31046;DHT22;17711;54.018;9.300;2022-12-07T15:37:06;2.60;99.90
31046;DHT22;17711;54.018;9.300;2022-12-07T15:39:35;2.50;99.90
31046;DHT22;17711;54.018;9.300;2022-12-07T15:42:05;2.50;99.90
31046;DHT22;17711;54.018;9.300;2022-12-07T15:44:35;2.40;99.90
31046;DHT22;17711;54.018;9.300;2022-12-07T15:47:22;2.40;99.90
31046;DHT22;17711;54.018;9.300;2022-12-07T15:49:51;2.30;99.90
31046;DHT22;17711;54.018;9.300;2022-12-07T15:52:20;2.30;99.90
31046;DHT22;17711;54.018;9.300;2022-12-07T15:54:49;2.20;99.90
31046;DHT22;17711;54.018;9.300;2022-12-07T15:57:18;2.20;99.90
31046;DHT22;17711;54.018;9.300;2022-12-07T15:59:53;2.20;99.90
31046;DHT22;17711;54.018;9.300;2022-12-07T16:02:23;2.20;99.90
31046;DHT22;17711;54.018;9.300;2022-12-07T16:04:52;2.20;99.90
31046;DHT22;17711;54.018;9.300;2022-12-07T16:07:21;2.30;99.90
31046;DHT22;17711;54.018;9.300;2022-12-07T16:09:50;2.40;99.90
31046;DHT22;17711;54.018;9.300;2022-12-07T16:12:19;2.40;99.90
31046;DHT22;17711;54.018;9.300;2022-12-07T16:14:48;2.50;99.90
31046;DHT22;17711;54.018;9.300;2022-12-07T16:17:18;2.50;99.90
31046;DHT22;17711;54.018;9.300;2022-12-07T16:19:47;2.60;99.90
31046;DHT22;17711;54.018;9.300;2022-12-07T16:22:15;2.60;99.90
31046;DHT22;17711;54.018;9.300;2022-12-07T16:24:44;2.60;99.90
31046;DHT22;17711;54.018;9.300;2022-12-07T16:27:13;2.70;99.90
31046;DHT22;17711;54.018;9.300;2022-12-07T16:29:42;2.70;99.90
31046;DHT22;17711;54.018;9.300;2022-12-07T16:32:11;2.70;99.90
31046;DHT22;17711;54.018;9.300;2022-12-07T16:34:41;2.70;99.90
31046;DHT22;17711;54.018;9.300;2022-12-07T16:37:10;2.70;99.90